Archiv-/Tagesdaten

--Timestamp---	Temp	Chill	HIndex	Humid	Dewpt	Wind	HiWind	WindDir	Rain	Barom	Solar	ET	UV
--------------	----	-----	------	-----	-----	----	------	-------	----	-----	-----	--	--
20071128 00:05	-1.9	-1.9	-1.9	90	-3.4	0	0	247	0.00	1028.855	0	0.000	0
20071128 00:10	-2.0	-2.0	-2.0	91	-3.3	0	2	247	0.00	1028.855	0	0.000	0
20071128 00:15	-2.0	-2.0	-2.0	91	-3.3	2	5	247	0.00	1028.788	0	0.000	0
20071128 00:20	-2.0	-2.0	-2.0	91	-3.3	2	3	247	0.00	1028.788	0	0.000	0
20071128 00:25	-2.0	-2.0	-2.0	91	-3.3	2	5	247	0.00	1028.686	0	0.000	0
20071128 00:30	-2.1	-2.1	-2.1	91	-3.3	2	5	247	0.00	1028.720	0	0.000	0
20071128 00:35	-2.1	-2.1	-2.1	91	-3.3	2	5	247	0.00	1028.585	0	0.000	0
20071128 00:40	-2.1	-2.1	-2.1	91	-3.4	0	2	247	0.00	1028.585	0	0.000	0
20071128 00:45	-2.2	-2.2	-2.2	91	-3.4	0	2	247	0.00	1028.415	0	0.000	0
20071128 00:50	-2.2	-2.2	-2.2	91	-3.5	0	2	247	0.00	1028.483	0	0.000	0
20071128 00:55	-2.3	-2.3	-2.3	91	-3.5	0	5	247	0.00	1028.381	0	0.000	0
20071128 01:00	-2.3	-2.3	-2.3	91	-3.6	0	2	247	0.00	1028.314	0	0.000	0
20071128 01:05	-2.3	-2.3	-2.3	91	-3.6	0	2	247	0.00	1028.246	0	0.000	0
20071128 01:10	-2.3	-2.3	-2.3	91	-3.6	0	3	247	0.00	1028.246	0	0.000	0
20071128 01:15	-2.3	-2.3	-2.3	91	-3.6	0	2	247	0.00	1028.178	0	0.000	0
20071128 01:20	-2.3	-2.3	-2.3	91	-3.6	0	2	247	0.00	1028.144	0	0.000	0
20071128 01:25	-2.4	-2.4	-2.4	91	-3.7	0	0	247	0.00	1028.110	0	0.000	0
20071128 01:30	-2.4	-2.4	-2.4	91	-3.7	0	2	247	0.00	1028.144	0	0.000	0
20071128 01:35	-2.5	-2.5	-2.5	91	-3.8	0	0	247	0.00	1028.144	0	0.000	0
20071128 01:40	-2.6	-2.6	-2.6	91	-3.9	0	0	247	0.00	1028.043	0	0.000	0
20071128 01:45	-2.7	-2.7	-2.7	91	-4.0	0	2	247	0.00	1028.009	0	0.000	0
20071128 01:50	-2.8	-2.8	-2.8	92	-3.9	2	3	247	0.00	1028.043	0	0.000	0
20071128 01:55	-2.8	-2.8	-2.8	92	-3.9	0	2	247	0.00	1028.144	0	0.000	0
20071128 02:00	-2.8	-2.8	-2.8	92	-3.9	0	0	247	0.00	1028.043	0	0.000	0
20071128 02:05	-2.9	-2.9	-2.9	92	-4.1	0	0	247	0.00	1028.178	0	0.000	0
20071128 02:10	-3.0	-3.0	-3.0	92	-4.1	0	0	247	0.00	1028.110	0	0.000	0
20071128 02:15	-3.1	-3.1	-3.1	92	-4.2	0	2	247	0.00	1028.043	0	0.000	0
20071128 02:20	-3.2	-3.2	-3.2	92	-4.3	0	2	247	0.00	1028.043	0	0.000	0
20071128 02:25	-3.2	-3.2	-3.2	92	-4.3	0	3	247	0.00	1028.009	0	0.000	0
20071128 02:30	-3.1	-3.1	-3.1	92	-4.2	0	3	247	0.00	1027.975	0	0.000	0
20071128 02:35	-3.1	-3.1	-3.1	92	-4.2	0	2	247	0.00	1028.009	0	0.000	0
20071128 02:40	-3.1	-3.1	-3.1	92	-4.2	0	2	247	0.00	1027.941	0	0.000	0
20071128 02:45	-3.0	-3.0	-3.0	93	-4.0	0	2	247	0.00	1027.941	0	0.000	0
20071128 02:50	-2.9	-2.9	-2.9	93	-3.9	2	5	247	0.00	1027.840	0	0.000	0
20071128 02:55	-2.9	-2.9	-2.9	93	-3.9	2	5	247	0.00	1027.873	0	0.000	0
20071128 03:00	-2.8	-2.8	-2.8	93	-3.8	0	2	247	0.00	1027.806	0	0.000	0
20071128 03:05	-2.9	-2.9	-2.9	92	-4.0	0	0	247	0.00	1027.772	0	0.000	0
20071128 03:10	-3.0	-3.0	-3.0	92	-4.1	0	0	247	0.00	1027.772	0	0.000	0
20071128 03:15	-3.1	-3.1	-3.1	92	-4.2	0	0	247	0.00	1027.772	0	0.000	0
20071128 03:20	-3.2	-3.2	-3.2	92	-4.3	0	0	247	0.00	1027.806	0	0.000	0
20071128 03:25	-3.3	-3.3	-3.3	92	-4.4	0	2	247	0.00	1027.738	0	0.000	0
20071128 03:30	-3.3	-3.3	-3.3	92	-4.4	0	0	247	0.00	1027.670	0	0.000	0
20071128 03:35	-3.4	-3.4	-3.4	92	-4.5	2	3	247	0.00	1027.704	0	0.000	0
20071128 03:40	-3.4	-3.4	-3.4	92	-4.5	2	3	247	0.00	1027.738	0	0.000	0
20071128 03:45	-3.4	-3.4	-3.4	92	-4.5	0	2	247	0.00	1027.806	0	0.000	0
20071128 03:50	-3.4	-3.4	-3.4	92	-4.5	0	2	247	0.00	1027.806	0	0.000	0
20071128 03:55	-3.4	-3.4	-3.4	92	-4.6	0	0	247	0.00	1027.738	0	0.000	0
20071128 04:00	-3.4	-3.4	-3.4	92	-4.6	2	3	247	0.00	1027.704	0	0.000	0
20071128 04:05	-3.4	-3.4	-3.4	92	-4.6	2	3	247	0.00	1027.840	0	0.000	0
20071128 04:10	-3.4	-3.4	-3.4	92	-4.6	2	3	247	0.00	1027.840	0	0.000	0
20071128 04:15	-3.5	-3.5	-3.5	92	-4.6	0	2	247	0.00	1027.840	0	0.000	0
20071128 04:20	-3.6	-3.6	-3.6	92	-4.7	0	3	247	0.00	1027.738	0	0.000	0
20071128 04:25	-3.6	-3.6	-3.6	92	-4.7	2	3	247	0.00	1027.636	0	0.000	0
20071128 04:30	-3.6	-3.6	-3.6	93	-4.6	2	5	247	0.00	1027.806	0	0.000	0
20071128 04:35	-3.5	-3.5	-3.5	93	-4.5	3	5	247	0.00	1027.670	0	0.000	0
20071128 04:40	-3.4	-3.4	-3.4	93	-4.4	2	3	247	0.00	1027.636	0	0.000	0
20071128 04:45	-3.3	-3.3	-3.3	92	-4.4	0	5	247	0.00	1027.569	0	0.000	0
20071128 04:50	-3.3	-3.3	-3.3	92	-4.4	0	3	247	0.00	1027.535	0	0.000	0
20071128 04:55	-3.4	-3.4	-3.4	92	-4.6	0	3	247	0.00	1027.535	0	0.000	0
20071128 05:00	-3.4	-3.4	-3.4	92	-4.6	0	0	247	0.00	1027.467	0	0.000	0
20071128 05:05	-3.5	-3.5	-3.5	92	-4.6	0	3	247	0.00	1027.535	0	0.000	0
20071128 05:10	-3.6	-3.6	-3.6	92	-4.7	0	3	247	0.00	1027.467	0	0.000	0
20071128 05:15	-3.6	-3.6	-3.6	92	-4.7	0	3	247	0.00	1027.535	0	0.000	0
20071128 05:20	-3.5	-3.5	-3.5	92	-4.6	0	3	247	0.00	1027.501	0	0.000	0
20071128 05:25	-3.5	-3.5	-3.5	92	-4.6	3	5	247	0.00	1027.467	0	0.000	0
20071128 05:30	-3.4	-3.4	-3.4	92	-4.6	0	3	247	0.00	1027.467	0	0.000	0
20071128 05:35	-3.4	-3.4	-3.4	92	-4.6	0	3	247	0.00	1027.535	0	0.000	0
20071128 05:40	-3.5	-3.5	-3.5	92	-4.6	0	2	247	0.00	1027.569	0	0.000	0
20071128 05:45	-3.5	-3.5	-3.5	92	-4.6	0	3	247	0.00	1027.603	0	0.000	0
20071128 05:50	-3.5	-3.5	-3.5	92	-4.6	0	3	247	0.00	1027.603	0	0.000	0
20071128 05:55	-3.6	-3.6	-3.6	92	-4.7	0	2	247	0.00	1027.535	0	0.000	0
20071128 06:00	-3.6	-3.6	-3.6	92	-4.7	0	0	247	0.00	1027.603	0	0.000	0
20071128 06:05	-3.7	-3.7	-3.7	92	-4.8	0	0	247	0.00	1027.772	0	0.000	0
20071128 06:10	-3.8	-3.8	-3.8	92	-4.9	0	0	247	0.00	1027.704	0	0.000	0
20071128 06:15	-3.9	-3.9	-3.9	92	-5.0	2	5	247	0.00	1027.670	0	0.000	0
20071128 06:20	-4.0	-4.0	-4.0	92	-5.1	0	2	247	0.00	1027.603	0	0.000	0
20071128 06:25	-4.0	-4.0	-4.0	92	-5.1	0	2	247	0.00	1027.535	0	0.000	0
20071128 06:30	-3.9	-3.9	-3.9	93	-4.9	0	3	247	0.00	1027.467	0	0.000	0
20071128 06:35	-4.0	-4.0	-4.0	93	-5.0	0	3	247	0.00	1027.467	0	0.000	0
20071128 06:40	-3.9	-3.9	-3.9	93	-4.9	0	3	247	0.00	1027.467	0	0.000	0
20071128 06:45	-3.9	-3.9	-3.9	93	-4.9	0	2	247	0.00	1027.467	0	0.000	0
20071128 06:50	-3.9	-3.9	-3.9	93	-4.9	0	2	247	0.00	1027.433	0	0.000	0
20071128 06:55	-4.0	-4.0	-4.0	93	-5.0	0	2	247	0.00	1027.569	0	0.000	0
20071128 07:00	-4.1	-4.1	-4.1	92	-5.2	0	0	247	0.00	1027.467	0	0.000	0
20071128 07:05	-4.1	-4.1	-4.1	92	-5.2	0	3	247	0.00	1027.535	0	0.000	0
20071128 07:10	-4.1	-4.1	-4.1	93	-5.1	0	2	247	0.00	1027.569	0	0.000	0
20071128 07:15	-4.0	-4.0	-4.0	93	-5.0	0	3	247	0.00	1027.636	0	0.000	0
20071128 07:20	-3.9	-3.9	-3.9	93	-4.9	0	2	247	0.00	1027.603	0	0.000	0
20071128 07:25	-4.0	-4.0	-4.0	92	-5.1	0	2	247	0.00	1027.569	0	0.000	0
20071128 07:30	-4.1	-4.1	-4.1	92	-5.2	0	2	247	0.00	1027.399	0	0.000	0
20071128 07:35	-4.1	-4.1	-4.1	92	-5.2	0	0	247	0.00	1027.467	0	0.000	0
20071128 07:40	-4.2	-4.2	-4.2	92	-5.3	0	0	247	0.00	1027.569	0	0.000	0
20071128 07:45	-4.2	-4.2	-4.2	92	-5.3	0	0	247	0.00	1027.569	2	0.000	0
20071128 07:50	-4.3	-4.3	-4.3	92	-5.4	0	0	247	0.00	1027.433	5	0.000	0
20071128 07:55	-4.3	-4.3	-4.3	92	-5.4	2	8	247	0.00	1027.399	7	0.000	0
20071128 08:00	-4.1	-4.1	-4.1	93	-5.0	3	6	135	0.00	1027.230	9	0.000	0
20071128 08:05	-3.8	-3.8	-3.8	94	-4.6	3	6	135	0.00	1027.332	11	0.000	0
20071128 08:10	-3.6	-3.6	-3.6	94	-4.4	3	6	112	0.00	1027.298	12	0.000	0
20071128 08:15	-3.4	-3.4	-3.4	94	-4.3	3	6	112	0.00	1027.128	13	0.000	0
20071128 08:20	-3.2	-3.2	-3.2	94	-4.0	3	6	157	0.00	1027.095	14	0.000	0
20071128 08:25	-3.2	-3.2	-3.2	93	-4.1	3	6	157	0.00	1026.959	15	0.000	0
20071128 08:30	-3.0	-3.0	-3.0	93	-4.0	3	6	135	0.00	1027.027	16	0.000	0
20071128 08:35	-2.9	-2.9	-2.9	93	-3.9	2	6	135	0.00	1027.027	17	0.000	0
20071128 08:40	-2.9	-2.9	-2.9	93	-3.9	2	6	157	0.00	1027.027	18	0.000	0
20071128 08:45	-2.8	-2.8	-2.8	93	-3.7	2	5	157	0.00	1026.959	19	0.000	0
20071128 08:50	-2.7	-2.7	-2.7	93	-3.7	2	6	157	0.00	1026.858	19	0.000	0
20071128 08:55	-2.7	-2.7	-2.7	93	-3.6	3	10	157	0.00	1026.891	21	0.000	0
20071128 09:00	-2.6	-2.6	-2.6	93	-3.5	3	5	157	0.00	1026.858	21	0.000	0
20071128 09:05	-2.4	-2.4	-2.4	92	-3.6	3	8	157	0.00	1026.587	23	0.000	0
20071128 09:10	-2.3	-2.3	-2.3	92	-3.5	5	10	135	0.00	1026.485	23	0.000	0
20071128 09:15	-2.2	-2.2	-2.2	92	-3.3	5	10	135	0.00	1026.485	23	0.000	0
20071128 09:20	-2.1	-2.1	-2.1	92	-3.2	3	10	135	0.00	1026.553	25	0.000	0
20071128 09:25	-2.1	-2.1	-2.1	91	-3.3	3	6	135	0.00	1026.451	25	0.000	0
20071128 09:30	-1.9	-1.9	-1.9	91	-3.2	3	6	135	0.00	1026.485	26	0.000	0
20071128 09:35	-1.9	-1.9	-1.9	91	-3.2	3	8	135	0.00	1026.417	26	0.000	0
20071128 09:40	-1.8	-1.8	-1.8	91	-3.0	5	8	135	0.00	1026.417	28	0.000	0
20071128 09:45	-1.7	-1.7	-1.7	91	-2.9	3	6	135	0.00	1026.451	30	0.000	0
20071128 09:50	-1.6	-1.6	-1.6	91	-2.8	3	8	135	0.00	1026.485	32	0.000	0
20071128 09:55	-1.4	-1.4	-1.4	90	-2.9	3	10	135	0.00	1026.485	33	0.000	0
20071128 10:00	-1.3	-1.3	-1.3	90	-2.8	3	6	135	0.00	1026.316	35	0.000	0
20071128 10:05	-1.2	-1.2	-1.2	90	-2.6	5	10	135	0.00	1026.248	35	0.000	0
20071128 10:10	-0.9	-3.3	-0.9	89	-2.5	6	11	112	0.00	1026.282	34	0.000	0
20071128 10:15	-0.8	-0.8	-0.8	88	-2.5	5	10	112	0.00	1026.282	33	0.000	0
20071128 10:20	-0.6	-2.9	-0.6	88	-2.3	6	11	112	0.00	1026.316	31	0.000	0
20071128 10:25	-0.4	-3.7	-0.4	86	-2.5	10	14	112	0.00	1026.214	30	0.000	0
20071128 10:30	-0.3	-2.6	-0.3	87	-2.2	6	14	112	0.00	1026.113	30	0.000	0
20071128 10:35	-0.2	-2.4	-0.2	86	-2.3	6	10	112	0.00	1026.011	30	0.000	0
20071128 10:40	-0.1	-0.1	-0.1	86	-2.1	5	10	135	0.00	1025.842	31	0.000	0
20071128 10:45	0.1	-2.7	0.1	85	-2.2	8	14	112	0.00	1025.808	31	0.000	0
20071128 10:50	0.1	-2.1	0.1	84	-2.3	6	16	135	0.00	1025.672	42	0.000	0
20071128 10:55	0.2	-2.5	0.2	83	-2.4	8	18	112	0.00	1025.537	247	0.000	1
20071128 11:00	0.4	-2.3	0.4	83	-2.2	8	18	112	0.00	1025.401	271	0.020	1
20071128 11:05	0.6	0.6	0.6	84	-1.8	5	11	67	0.00	1025.300	271	0.000	1
20071128 11:10	0.4	-1.7	0.4	84	-2.0	6	10	67	0.00	1025.266	273	0.000	1
20071128 11:15	0.3	0.3	0.3	85	-1.9	5	8	67	0.00	1025.164	274	0.000	1
20071128 11:20	0.3	0.3	0.3	84	-2.0	5	10	67	0.00	1025.063	276	0.000	1
20071128 11:25	0.4	0.4	0.4	83	-2.2	5	11	90	0.00	1024.995	281	0.000	1
20071128 11:30	0.4	0.4	0.4	84	-1.9	3	11	112	0.00	1024.893	283	0.000	1
20071128 11:35	0.4	0.4	0.4	83	-2.1	5	10	45	0.20	1024.758	284	0.000	1
20071128 11:40	0.5	0.5	0.5	85	-1.7	5	10	90	0.00	1024.690	285	0.000	1
20071128 11:45	0.5	0.5	0.5	84	-1.9	3	6	67	0.00	1024.623	285	0.000	1
20071128 11:50	0.5	0.5	0.5	84	-1.9	5	11	67	0.00	1024.521	278	0.000	1
20071128 11:55	0.4	0.4	0.4	84	-1.9	5	11	67	0.00	1024.453	288	0.000	1
20071128 12:00	0.6	0.6	0.6	85	-1.7	5	10	90	0.00	1024.352	288	0.080	1
20071128 12:05	0.4	0.4	0.4	85	-1.8	3	8	90	0.00	1024.453	285	0.000	1
20071128 12:10	0.3	0.3	0.3	86	-1.7	3	6	67	0.00	1024.419	282	0.000	1
20071128 12:15	0.4	0.4	0.4	86	-1.6	5	10	135	0.00	1024.352	287	0.000	1
20071128 12:20	0.6	0.6	0.6	84	-1.8	5	11	90	0.00	1024.250	294	0.000	1
20071128 12:25	0.7	0.7	0.7	84	-1.7	5	10	67	0.00	1024.081	291	0.000	1
20071128 12:30	0.7	0.7	0.7	85	-1.6	5	11	90	0.00	1024.047	295	0.000	1
20071128 12:35	0.7	0.7	0.7	84	-1.7	3	8	67	0.00	1023.878	299	0.000	1
20071128 12:40	0.7	0.7	0.7	85	-1.6	5	10	67	0.00	1023.878	246	0.000	1
20071128 12:45	0.7	0.7	0.7	84	-1.7	3	10	67	0.00	1023.878	153	0.000	1
20071128 12:50	0.7	0.7	0.7	84	-1.7	5	11	135	0.00	1023.776	186	0.000	1
20071128 12:55	0.7	-1.3	0.7	84	-1.7	6	14	67	0.00	1023.708	200	0.000	1
20071128 13:00	0.8	0.8	0.8	84	-1.6	5	10	90	0.00	1023.539	231	0.080	1
20071128 13:05	0.8	0.8	0.8	85	-1.4	5	11	67	0.00	1023.471	272	0.000	1
20071128 13:10	0.9	0.9	0.9	84	-1.5	5	10	67	0.00	1023.336	271	0.000	1
20071128 13:15	0.9	0.9	0.9	84	-1.5	5	10	67	0.00	1023.302	272	0.000	1
20071128 13:20	1.1	1.1	1.1	83	-1.4	3	11	90	0.00	1023.166	268	0.000	1
20071128 13:25	1.3	1.3	1.3	82	-1.5	5	10	90	0.00	1022.929	230	0.000	1
20071128 13:30	1.3	1.3	1.3	82	-1.4	5	10	135	0.00	1022.862	259	0.000	1
20071128 13:35	1.5	-1.0	1.5	80	-1.6	8	18	135	0.00	1022.692	248	0.000	1
20071128 13:40	1.7	-0.3	1.7	79	-1.6	6	16	112	0.00	1022.625	239	0.000	1
20071128 13:45	1.7	-0.3	1.7	79	-1.6	6	19	90	0.00	1022.523	227	0.000	1
20071128 13:50	1.7	-0.3	1.7	78	-1.8	6	19	135	0.00	1022.523	233	0.000	1
20071128 13:55	1.7	-0.8	1.7	78	-1.8	8	19	135	0.20	1022.455	221	0.000	1
20071128 14:00	1.7	-0.3	1.7	77	-1.9	6	16	112	0.00	1022.387	227	0.000	1
20071128 14:05	1.7	1.7	1.7	79	-1.6	5	10	90	0.00	1022.286	215	0.080	1
20071128 14:10	1.7	-0.3	1.7	79	-1.6	6	14	112	0.00	1022.252	174	0.000	1
20071128 14:15	1.5	-0.4	1.5	77	-2.1	6	16	112	0.00	1022.184	40	0.000	0
20071128 14:20	1.3	-0.6	1.3	78	-2.1	6	14	90	0.00	1022.252	40	0.000	0
20071128 14:25	1.3	-0.6	1.3	79	-1.9	6	11	90	0.00	1022.150	41	0.000	0
20071128 14:30	1.3	-0.6	1.3	78	-2.1	6	11	90	0.00	1022.117	39	0.000	0
20071128 14:35	1.2	-0.8	1.2	78	-2.2	6	14	90	0.00	1021.981	37	0.000	0
20071128 14:40	1.1	-0.9	1.1	78	-2.3	6	13	90	0.00	1022.049	35	0.000	0
20071128 14:45	1.0	-1.6	1.0	78	-2.4	8	18	90	0.00	1022.015	34	0.000	0
20071128 14:50	0.9	-1.2	0.9	78	-2.5	6	16	90	0.00	1021.981	32	0.000	0
20071128 14:55	0.8	-1.3	0.8	79	-2.4	6	16	90	0.00	1021.913	30	0.000	0
20071128 15:00	0.6	-1.5	0.6	79	-2.6	6	18	112	0.00	1021.812	28	0.020	0
20071128 15:05	0.5	-1.6	0.5	80	-2.5	6	14	90	0.00	1021.846	25	0.000	0
20071128 15:10	0.4	0.4	0.4	80	-2.7	5	16	112	0.00	1021.846	28	0.000	0
20071128 15:15	0.3	0.3	0.3	82	-2.4	5	10	135	0.00	1021.880	28	0.000	0
20071128 15:20	0.3	0.3	0.3	82	-2.4	5	14	112	0.00	1021.812	26	0.000	0
20071128 15:25	0.2	0.2	0.2	83	-2.3	5	11	112	0.00	1021.710	25	0.000	0
20071128 15:30	0.1	-2.1	0.1	83	-2.5	6	11	135	0.00	1021.778	23	0.000	0
20071128 15:35	0.0	0.0	0.0	83	-2.5	5	10	112	0.00	1021.812	22	0.000	0
20071128 15:40	-0.2	-2.9	-0.2	84	-2.5	8	19	135	0.00	1021.812	21	0.000	0
20071128 15:45	-0.3	-2.5	-0.3	84	-2.6	6	16	112	0.00	1021.778	19	0.000	0
20071128 15:50	-0.3	-0.3	-0.3	84	-2.7	5	10	112	0.00	1021.880	18	0.000	0
20071128 15:55	-0.4	-0.4	-0.4	84	-2.8	5	10	90	0.00	1021.846	16	0.000	0
20071128 16:00	-0.6	-0.6	-0.6	85	-2.8	5	10	90	0.00	1021.778	14	0.020	0
20071128 16:05	-0.7	-0.7	-0.7	85	-2.9	5	10	90	0.00	1021.778	12	0.000	0
20071128 16:10	-0.7	-0.7	-0.7	85	-2.9	3	8	90	0.00	1021.778	10	0.000	0
20071128 16:15	-0.8	-0.8	-0.8	85	-3.0	3	8	90	0.00	1021.710	7	0.000	0
20071128 16:20	-0.9	-0.9	-0.9	87	-2.8	5	11	67	0.00	1021.710	5	0.000	0
20071128 16:25	-1.2	-1.2	-1.2	88	-2.9	5	8	45	0.00	1021.643	1	0.000	0
20071128 16:30	-1.4	-3.8	-1.4	89	-3.0	6	10	67	0.00	1021.575	0	0.000	0
20071128 16:35	-1.5	-1.5	-1.5	90	-2.9	5	10	45	0.00	1021.744	0	0.000	0
20071128 16:40	-1.6	-1.6	-1.6	90	-3.0	5	8	67	0.00	1021.812	0	0.000	0
20071128 16:45	-1.7	-1.7	-1.7	90	-3.1	3	6	67	0.00	1021.710	0	0.000	0
20071128 16:50	-1.7	-1.7	-1.7	90	-3.1	3	6	112	0.00	1021.744	0	0.000	0
20071128 16:55	-1.7	-1.7	-1.7	90	-3.1	3	8	67	0.00	1021.575	0	0.000	0
20071128 17:00	-1.8	-1.8	-1.8	90	-3.2	3	8	45	0.00	1021.541	0	0.000	0
20071128 17:05	-1.8	-1.8	-1.8	90	-3.2	3	8	67	0.00	1021.473	0	0.000	0
20071128 17:10	-1.8	-1.8	-1.8	90	-3.3	3	6	112	0.00	1021.439	0	0.000	0
20071128 17:15	-1.8	-1.8	-1.8	90	-3.3	5	10	90	0.00	1021.439	0	0.000	0
20071128 17:20	-1.9	-1.9	-1.9	90	-3.3	3	5	112	0.00	1021.405	0	0.000	0
20071128 17:25	-1.9	-1.9	-1.9	90	-3.4	2	5	112	0.00	1021.338	0	0.000	0
20071128 17:30	-1.9	-1.9	-1.9	90	-3.4	3	8	112	0.00	1021.338	0	0.000	0
20071128 17:35	-1.9	-1.9	-1.9	91	-3.2	2	5	112	0.00	1021.270	0	0.000	0
20071128 17:40	-2.0	-2.0	-2.0	91	-3.3	3	8	135	0.00	1021.270	0	0.000	0
20071128 17:45	-2.1	-2.1	-2.1	91	-3.3	3	6	112	0.00	1021.168	0	0.000	0
20071128 17:50	-2.1	-2.1	-2.1	91	-3.3	3	11	135	0.00	1021.067	0	0.000	0
20071128 17:55	-2.1	-2.1	-2.1	91	-3.4	3	10	135	0.00	1021.067	0	0.000	0
20071128 18:00	-2.1	-2.1	-2.1	91	-3.4	3	8	135	0.00	1020.999	0	0.000	0
20071128 18:05	-2.2	-2.2	-2.2	91	-3.4	3	6	112	0.00	1021.236	0	0.000	0
20071128 18:10	-2.2	-2.2	-2.2	91	-3.4	3	8	135	0.00	1021.168	0	0.000	0
20071128 18:15	-2.2	-2.2	-2.2	91	-3.5	3	8	135	0.00	1021.067	0	0.000	0
20071128 18:20	-2.2	-2.2	-2.2	91	-3.5	3	8	135	0.00	1021.067	0	0.000	0
20071128 18:25	-2.3	-2.3	-2.3	91	-3.5	3	8	135	0.00	1020.999	0	0.000	0
20071128 18:30	-2.3	-2.3	-2.3	91	-3.5	5	8	135	0.00	1020.931	0	0.000	0
20071128 18:35	-2.3	-2.3	-2.3	91	-3.6	3	6	135	0.00	1020.897	0	0.000	0
20071128 18:40	-2.4	-2.4	-2.4	91	-3.7	5	10	135	0.00	1020.864	0	0.000	0
20071128 18:45	-2.4	-2.4	-2.4	91	-3.7	2	5	90	0.00	1020.864	0	0.000	0
20071128 18:50	-2.4	-2.4	-2.4	91	-3.7	2	5	135	0.00	1020.864	0	0.000	0
20071128 18:55	-2.4	-2.4	-2.4	91	-3.7	3	10	135	0.00	1020.796	0	0.000	0
20071128 19:00	-2.5	-2.5	-2.5	91	-3.8	3	6	67	0.00	1020.694	0	0.000	0
20071128 19:05	-2.6	-2.6	-2.6	91	-3.8	3	11	135	0.00	1020.559	0	0.000	0
20071128 19:10	-2.6	-2.6	-2.6	91	-3.8	3	8	135	0.00	1020.525	0	0.000	0
20071128 19:15	-2.6	-2.6	-2.6	91	-3.8	3	6	135	0.00	1020.491	0	0.000	0
20071128 19:20	-2.6	-2.6	-2.6	91	-3.9	3	10	135	0.00	1020.390	0	0.000	0
20071128 19:25	-2.6	-2.6	-2.6	91	-3.9	3	8	135	0.00	1020.356	0	0.000	0
20071128 19:30	-2.6	-2.6	-2.6	91	-3.9	3	6	112	0.00	1020.288	0	0.000	0
20071128 19:35	-2.6	-2.6	-2.6	91	-3.8	3	6	135	0.00	1020.220	0	0.000	0
20071128 19:40	-2.5	-2.5	-2.5	91	-3.8	3	6	135	0.00	1020.152	0	0.000	0
20071128 19:45	-2.5	-2.5	-2.5	92	-3.6	5	10	135	0.00	1020.119	0	0.000	0
20071128 19:50	-2.4	-2.4	-2.4	92	-3.6	3	5	135	0.00	1020.017	0	0.000	0
20071128 19:55	-2.4	-2.4	-2.4	92	-3.6	3	6	135	0.00	1019.983	0	0.000	0
20071128 20:00	-2.4	-2.4	-2.4	92	-3.5	3	8	112	0.00	1019.949	0	0.000	0
20071128 20:05	-2.4	-2.4	-2.4	92	-3.5	5	8	135	0.00	1019.645	0	0.000	0
20071128 20:10	-2.3	-2.3	-2.3	92	-3.5	5	10	135	0.00	1019.645	0	0.000	0
20071128 20:15	-2.3	-2.3	-2.3	92	-3.5	5	8	135	0.00	1019.645	0	0.000	0
20071128 20:20	-2.3	-2.3	-2.3	92	-3.5	3	6	135	0.00	1019.611	0	0.000	0
20071128 20:25	-2.3	-2.3	-2.3	92	-3.5	3	10	157	0.00	1019.577	0	0.000	0
20071128 20:30	-2.3	-2.3	-2.3	92	-3.5	5	8	112	0.00	1019.509	0	0.000	0
20071128 20:35	-2.3	-4.8	-2.3	92	-3.4	6	11	112	0.00	1019.475	0	0.000	0
20071128 20:40	-2.3	-2.3	-2.3	92	-3.4	5	10	135	0.00	1019.306	0	0.000	0
20071128 20:45	-2.3	-4.8	-2.3	92	-3.4	6	11	112	0.00	1019.272	0	0.000	0
20071128 20:50	-2.3	-2.3	-2.3	92	-3.4	5	10	135	0.00	1019.340	0	0.000	0
20071128 20:55	-2.3	-2.3	-2.3	92	-3.4	3	10	135	0.00	1019.340	0	0.000	0
20071128 21:00	-2.3	-2.3	-2.3	92	-3.4	5	14	135	0.00	1019.238	0	0.000	0
20071128 21:05	-2.3	-2.3	-2.3	92	-3.4	5	8	157	0.00	1018.866	0	0.000	0
20071128 21:10	-2.3	-6.0	-2.3	92	-3.5	10	14	112	0.00	1018.798	0	0.000	0
20071128 21:15	-2.3	-2.3	-2.3	92	-3.5	5	14	112	0.00	1018.730	0	0.000	0
20071128 21:20	-2.3	-2.3	-2.3	92	-3.5	3	6	135	0.00	1018.730	0	0.000	0
20071128 21:25	-2.3	-2.3	-2.3	92	-3.4	5	11	135	0.00	1018.730	0	0.000	0
20071128 21:30	-2.3	-2.3	-2.3	92	-3.5	5	10	112	0.00	1018.730	0	0.000	0
20071128 21:35	-2.3	-2.3	-2.3	92	-3.5	2	5	135	0.00	1018.764	0	0.000	0
20071128 21:40	-2.3	-2.3	-2.3	92	-3.4	3	8	135	0.00	1018.730	0	0.000	0
20071128 21:45	-2.3	-2.3	-2.3	92	-3.4	2	5	135	0.00	1018.696	0	0.000	0
20071128 21:50	-2.3	-2.3	-2.3	92	-3.4	2	3	135	0.00	1018.662	0	0.000	0
20071128 21:55	-2.3	-2.3	-2.3	92	-3.4	2	5	135	0.00	1018.629	0	0.000	0
20071128 22:00	-2.3	-2.3	-2.3	92	-3.4	2	5	135	0.00	1018.595	0	0.000	0
20071128 22:05	-2.3	-2.3	-2.3	92	-3.4	2	5	135	0.00	1018.459	0	0.000	0
20071128 22:10	-2.3	-2.3	-2.3	92	-3.4	3	8	112	0.00	1018.358	0	0.000	0
20071128 22:15	-2.3	-2.3	-2.3	92	-3.5	2	5	112	0.00	1018.358	0	0.000	0
20071128 22:20	-2.3	-2.3	-2.3	92	-3.5	2	5	112	0.00	1018.358	0	0.000	0
20071128 22:25	-2.3	-2.3	-2.3	93	-3.3	2	5	112	0.00	1018.324	0	0.000	0
20071128 22:30	-2.4	-2.4	-2.4	92	-3.5	2	5	112	0.00	1018.222	0	0.000	0
20071128 22:35	-2.4	-2.4	-2.4	93	-3.4	3	6	112	0.00	1018.324	0	0.000	0
20071128 22:40	-2.4	-2.4	-2.4	93	-3.4	3	6	112	0.00	1018.358	0	0.000	0
20071128 22:45	-2.4	-2.4	-2.4	93	-3.4	0	5	112	0.00	1018.324	0	0.000	0
20071128 22:50	-2.5	-2.5	-2.5	93	-3.5	2	5	112	0.00	1018.324	0	0.000	0
20071128 22:55	-2.5	-2.5	-2.5	93	-3.5	2	5	112	0.00	1018.324	0	0.000	0
20071128 23:00	-2.5	-2.5	-2.5	93	-3.5	2	5	112	0.00	1018.358	0	0.000	0
20071128 23:05	-2.6	-2.6	-2.6	93	-3.5	2	5	112	0.00	1018.290	0	0.000	0
20071128 23:10	-2.5	-2.5	-2.5	93	-3.5	0	3	112	0.00	1018.222	0	0.000	0
20071128 23:15	-2.5	-2.5	-2.5	93	-3.5	0	3	112	0.00	1018.290	0	0.000	0
20071128 23:20	-2.6	-2.6	-2.6	93	-3.5	2	3	112	0.00	1018.222	0	0.000	0
20071128 23:25	-2.6	-2.6	-2.6	93	-3.5	0	3	112	0.00	1018.154	0	0.000	0
20071128 23:30	-2.6	-2.6	-2.6	93	-3.6	0	3	112	0.00	1018.188	0	0.000	0
20071128 23:35	-2.7	-2.7	-2.7	93	-3.6	2	5	112	0.00	1018.121	0	0.000	0
20071128 23:40	-2.7	-2.7	-2.7	93	-3.6	0	5	112	0.00	1018.121	0	0.000	0
20071128 23:45	-2.7	-2.7	-2.7	93	-3.6	2	5	112	0.00	1018.087	0	0.000	0
20071128 23:50	-2.7	-2.7	-2.7	93	-3.6	0	2	112	0.00	1017.985	0	0.000	0
20071128 23:55	-2.7	-2.7	-2.7	93	-3.7	0	2	112	0.00	1017.917	0	0.000	0
20071128 24:00	-2.7	-2.7	-2.7	94	-3.5	0	5	112	0.00	1017.985	0	0.000	0



Please note the license to use and transfer of this data:
http://creativecommons.org/licenses/by-nc-sa/3.0/deed.en

Bitte beachten sie die Lizenz zur Verwertung und Weitergabe der Daten:
http://creativecommons.org/licenses/by-nc-sa/3.0/deed.de

zurück zur Übersicht der Archivdaten (Monats und Tagesdaten)

Cookies helfen bei der Bereitstellung von Inhalten. Durch die Nutzung dieser Seiten erklärst du dich damit einverstanden, dass Cookies auf deinem Rechner gespeichert werden. Weitere Information